Porcupine, North Dakota
Current Conditions -  °F | °C
As of 2:35 PM on Monday 24 Nov 2014 (Local Time) from KY19 Reporting Station
Clear Clear  
Wind Chill: 12°   Ceiling: Unl
Heat Index: 25°   Visibility: 10mi
Dew Point:   Wind: 15mph
Humidity: 43%   Direction: 310°NW
Pressure: 29.97"   Gusts: 23mph
Location:  46.1857°N, 101.254°W
Report Text: KY19 242135Z AUTO 31013G20KT 10SM CLR M04/M15 A2997 RMK AO2
Loading
Personal Weather Stations






























Interactive Weather Map New forecast layout! Learn more

10-Day Weather Forecast

Advertisements
Track Severe Weather on mobile